Wednesday, November 22, 2017, 4:10 AM EST
Back to Local

KHIE, Mt Washington Regional Airport

Location: Jefferson, NH, United States Lat: 44.367
Local Time: 4:10 AM EST ( 9:10 GMT) Lon: -71.55
Time Zone: US/Eastern Elev: 1072 ft

Show me the last for .
Show Decoded

2017-11-22 03:52 METAR KHIE 220852Z AUTO 00000KT 10SM CLR M05/M06 A2990 RMK AO2 SLP136 I1000
                 I3000 T10501061 58005 =
2017-11-22 02:52 METAR KHIE 220752Z AUTO 00000KT 10SM CLR M04/M06 A2991 RMK AO2 SLP140 T10441061
                 =
2017-11-22 01:52 METAR KHIE 220652Z AUTO 00000KT 10SM CLR M04/M05 A2991 RMK AO2 SLP137 T10441050
                 =
2017-11-22 00:52 METAR KHIE 220552Z AUTO 00000KT 10SM CLR M04/M05 A2991 RMK AO2 SLP139 T10391050
                 11022 21039 53001 =
2017-11-21 23:52 METAR KHIE 220452Z AUTO 00000KT 10SM CLR M04/M05 A2992 RMK AO2 SLP144 T10391050
                 401221083 =
2017-11-21 22:52 METAR KHIE 220352Z AUTO 00000KT 10SM CLR M03/M04 A2990 RMK AO2 SLP136 T10331044
                 =
2017-11-21 21:52 METAR KHIE 220252Z AUTO 00000KT 10SM CLR M02/M04 A2991 RMK AO2 SLP142 T10221039
                 53010 =
2017-11-21 20:52 METAR KHIE 220152Z AUTO 00000KT 10SM CLR M03/M05 A2990 RMK AO2 SLP141 T10281050
                 =
2017-11-21 19:52 METAR KHIE 220052Z AUTO 00000KT 10SM CLR M03/M04 A2987 RMK AO2 SLP134 T10281044
                 =
2017-11-21 18:52 METAR KHIE 212352Z AUTO 00000KT 10SM CLR M02/M04 A2988 RMK AO2 SLP135 T10221044
                 10122 21022 51014 =
2017-11-21 17:52 METAR KHIE 212252Z AUTO 00000KT 10SM CLR M01/M04 A2987 RMK AO2 SLP131 T10111039
                 =
2017-11-21 16:52 METAR KHIE 212152Z AUTO 00000KT 10SM CLR 01/M04 A2986 RMK AO2 SLP125 T00111039 =
2017-11-21 15:52 METAR KHIE 212052Z AUTO VRB04KT 10SM CLR 09/M06 A2984 RMK AO2 SLP116 T00891056
                 55000 =
2017-11-21 14:52 METAR KHIE 211952Z AUTO 00000KT 10SM CLR 11/M05 A2982 RMK AO2 SLP108 T01111050 =
2017-11-21 13:52 METAR KHIE 211852Z AUTO 20004KT 10SM CLR 12/M05 A2982 RMK AO2 SLP109 T01171050 =
2017-11-21 12:52 METAR KHIE 211752Z AUTO 23008G17KT 180V280 10SM CLR 12/M06 A2984 RMK AO2 SLP114
                 T01221056 10122 21083 56033 =
2017-11-21 11:52 METAR KHIE 211652Z AUTO VRB03KT 10SM CLR 09/M03 A2986 RMK AO2 SLP124 T00941028 =
2017-11-21 10:52 METAR KHIE 211552Z AUTO 00000KT 10SM CLR 04/M03 A2990 RMK AO2 SLP139 T00441028 =
2017-11-21 09:52 METAR KHIE 211452Z AUTO 00000KT 10SM CLR 01/M05 A2994 RMK AO2 SLP154 T00061050
                 58012 =
2017-11-21 08:52 METAR KHIE 211352Z AUTO 00000KT 10SM CLR M03/M06 A2995 RMK AO2 SLP159 T10281061
                 =
2017-11-21 07:52 METAR KHIE 211252Z AUTO 00000KT 10SM CLR M07/M08 A2998 RMK AO2 SLP170 T10671083
                 =
2017-11-21 06:52 METAR KHIE 211152Z AUTO 00000KT 10SM CLR M08/M09 A2997 RMK AO2 SLP169 I1000
                 I6000 T10781089 11044 21083 50004 =
2017-11-21 05:52 METAR KHIE 211052Z AUTO 00000KT 10SM CLR M07/M08 A2998 RMK AO2 SLP171 T10721083
                 =
2017-11-21 04:52 METAR KHIE 210952Z AUTO 00000KT 10SM BKN035 M04/M08 A2998 RMK AO2 SLP170
                 T10441078 =

Support USWX by starting your Amazon purchase here.